Terminal Aerodrome Forecast
Issued by NWS Wilmington, OH

Current Version | Previous Version | Graphics & Text | Print | Product List | Glossary On
Versions: 1 2 3 4 5 6 7 8 9 10 11 12 13 14 15 16 17 18 19 20 21 22
000
FTUS41 KILN 190545 AAC
TAFILN
TAF AMD
KILN 190545Z 1906/2006 VRB04KT P6SM BKN100
      TEMPO 1906/1910 5SM BR
     FM191300 16005KT P6SM VCTS BKN070CB
     FM192300 VRB04KT P6SM BKN090
     FM200500 VRB03KT 5SM BR BKN090=

USA.gov is the U.S. government's official web portal to all federal, state and local government web resources and services.